sensor_id;sensor_type;location;lat;lon;timestamp;pressure;altitude;pressure_sealevel;temperature;humidity
5877;BME280;2964;42.144;24.730;2022-10-17T00:00:16;143652.06;;;8.27;95.22
5877;BME280;2964;42.144;24.730;2022-10-17T00:02:43;143679.63;;;8.39;96.98
5877;BME280;2964;42.144;24.730;2022-10-17T00:05:09;143642.03;;;8.23;98.16
5877;BME280;2964;42.144;24.730;2022-10-17T00:07:37;143648.28;;;8.26;99.12
5877;BME280;2964;42.144;24.730;2022-10-17T00:10:05;143664.59;;;8.32;98.61
5877;BME280;2964;42.144;24.730;2022-10-17T00:12:33;143684.63;;;8.41;98.38
5877;BME280;2964;42.144;24.730;2022-10-17T00:15:02;143623.22;;;8.16;98.47
5877;BME280;2964;42.144;24.730;2022-10-17T00:17:28;143682.16;;;8.40;97.91
5877;BME280;2964;42.144;24.730;2022-10-17T00:19:57;143670.84;;;8.35;98.52
5877;BME280;2964;42.144;24.730;2022-10-17T00:22:24;143603.16;;;8.07;98.23
5877;BME280;2964;42.144;24.730;2022-10-17T00:24:50;143581.88;;;7.99;99.20
5877;BME280;2964;42.144;24.730;2022-10-17T00:27:17;143581.88;;;7.99;98.88
5877;BME280;2964;42.144;24.730;2022-10-17T00:29:48;143694.75;;;8.45;97.31
5877;BME280;2964;42.144;24.730;2022-10-17T00:32:15;143807.63;;;8.91;94.21
5877;BME280;2964;42.144;24.730;2022-10-17T00:34:42;143703.53;;;8.48;94.54
5877;BME280;2964;42.144;24.730;2022-10-17T00:37:08;143738.59;;;8.63;95.01
5877;BME280;2964;42.144;24.730;2022-10-17T00:39:35;143781.28;;;8.80;93.13
5877;BME280;2964;42.144;24.730;2022-10-17T00:42:02;143875.38;;;9.19;91.37
5877;BME280;2964;42.144;24.730;2022-10-17T00:45:04;143866.56;;;9.15;90.65
5877;BME280;2964;42.144;24.730;2022-10-17T00:47:32;143624.47;;;8.16;93.74
5877;BME280;2964;42.144;24.730;2022-10-17T00:50:01;143652.06;;;8.27;94.97
5877;BME280;2964;42.144;24.730;2022-10-17T00:52:29;143558.03;;;7.89;96.29
5877;BME280;2964;42.144;24.730;2022-10-17T00:54:58;143529.22;;;7.77;96.97
5877;BME280;2964;42.144;24.730;2022-10-17T00:57:28;143505.44;;;7.67;98.25
5877;BME280;2964;42.144;24.730;2022-10-17T00:59:58;143456.56;;;7.47;99.10
5877;BME280;2964;42.144;24.730;2022-10-17T01:02:26;143455.25;;;7.47;99.91
5877;BME280;2964;42.144;24.730;2022-10-17T01:04:53;143457.78;;;7.48;99.91
5877;BME280;2964;42.144;24.730;2022-10-17T01:07:23;143467.81;;;7.52;100.00
5877;BME280;2964;42.144;24.730;2022-10-17T01:09:50;143451.53;;;7.45;99.70
5877;BME280;2964;42.144;24.730;2022-10-17T01:12:19;143459.03;;;7.48;99.75
5877;BME280;2964;42.144;24.730;2022-10-17T01:14:57;143367.59;;;7.11;100.00
5877;BME280;2964;42.144;24.730;2022-10-17T01:17:33;143358.81;;;7.07;100.00
5877;BME280;2964;42.144;24.730;2022-10-17T01:23:17;143397.69;;;7.23;100.00
5877;BME280;2964;42.144;24.730;2022-10-17T01:25:53;143393.91;;;7.22;100.00
5877;BME280;2964;42.144;24.730;2022-10-17T01:28:37;143431.47;;;7.37;100.00
5877;BME280;2964;42.144;24.730;2022-10-17T01:31:14;143385.13;;;7.18;100.00
5877;BME280;2964;42.144;24.730;2022-10-17T01:33:46;143413.94;;;7.30;100.00
5877;BME280;2964;42.144;24.730;2022-10-17T01:36:22;143382.63;;;7.17;100.00
5877;BME280;2964;42.144;24.730;2022-10-17T01:38:58;143336.28;;;6.98;100.00
5877;BME280;2964;42.144;24.730;2022-10-17T01:41:33;143343.81;;;7.01;100.00
5877;BME280;2964;42.144;24.730;2022-10-17T01:44:09;143317.50;;;6.90;100.00
5877;BME280;2964;42.144;24.730;2022-10-17T01:46:41;143338.81;;;6.99;100.00
5877;BME280;2964;42.144;24.730;2022-10-17T01:49:12;143352.59;;;7.05;100.00
5877;BME280;2964;42.144;24.730;2022-10-17T01:51:43;143396.38;;;7.23;100.00
5877;BME280;2964;42.144;24.730;2022-10-17T01:54:16;143499.13;;;7.65;99.96
5877;BME280;2964;42.144;24.730;2022-10-17T01:56:47;143479.09;;;7.57;99.26
5877;BME280;2964;42.144;24.730;2022-10-17T01:59:18;143375.13;;;7.14;99.96
5877;BME280;2964;42.144;24.730;2022-10-17T02:01:50;143338.81;;;6.99;100.00
5877;BME280;2964;42.144;24.730;2022-10-17T02:04:17;143306.22;;;6.86;100.00
5877;BME280;2964;42.144;24.730;2022-10-17T02:06:44;143351.28;;;7.04;100.00
5877;BME280;2964;42.144;24.730;2022-10-17T02:09:19;143316.28;;;6.90;100.00
5877;BME280;2964;42.144;24.730;2022-10-17T02:11:54;143314.97;;;6.89;100.00
5877;BME280;2964;42.144;24.730;2022-10-17T02:14:34;143268.66;;;6.70;100.00
5877;BME280;2964;42.144;24.730;2022-10-17T02:17:11;143252.38;;;6.64;100.00
5877;BME280;2964;42.144;24.730;2022-10-17T02:19:54;143263.66;;;6.68;100.00
5877;BME280;2964;42.144;24.730;2022-10-17T02:22:31;143263.66;;;6.68;100.00
5877;BME280;2964;42.144;24.730;2022-10-17T02:25:08;143242.38;;;6.60;100.00
5877;BME280;2964;42.144;24.730;2022-10-17T02:27:43;143222.34;;;6.51;100.00
5877;BME280;2964;42.144;24.730;2022-10-17T02:30:19;143191.06;;;6.38;100.00
5877;BME280;2964;42.144;24.730;2022-10-17T02:32:54;143207.31;;;6.45;100.00
5877;BME280;2964;42.144;24.730;2022-10-17T02:35:24;143238.59;;;6.58;100.00
5877;BME280;2964;42.144;24.730;2022-10-17T02:37:54;143218.59;;;6.50;100.00
5877;BME280;2964;42.144;24.730;2022-10-17T02:40:21;143228.59;;;6.54;100.00
5877;BME280;2964;42.144;24.730;2022-10-17T02:42:51;143256.13;;;6.65;100.00
5877;BME280;2964;42.144;24.730;2022-10-17T02:45:20;143261.13;;;6.67;100.00
5877;BME280;2964;42.144;24.730;2022-10-17T02:47:56;143263.66;;;6.68;100.00
5877;BME280;2964;42.144;24.730;2022-10-17T02:50:31;143207.31;;;6.45;100.00
5877;BME280;2964;42.144;24.730;2022-10-17T02:53:04;143237.38;;;6.57;100.00
5877;BME280;2964;42.144;24.730;2022-10-17T02:55:38;143273.66;;;6.72;100.00
5877;BME280;2964;42.144;24.730;2022-10-17T02:58:09;143291.19;;;6.80;100.00
5877;BME280;2964;42.144;24.730;2022-10-17T03:00:37;143266.13;;;6.69;100.00
5877;BME280;2964;42.144;24.730;2022-10-17T03:03:19;143242.38;;;6.60;100.00
5877;BME280;2964;42.144;24.730;2022-10-17T03:05:46;143239.88;;;6.59;100.00
5877;BME280;2964;42.144;24.730;2022-10-17T03:08:12;143223.59;;;6.52;100.00
5877;BME280;2964;42.144;24.730;2022-10-17T03:10:39;143219.84;;;6.50;100.00
5877;BME280;2964;42.144;24.730;2022-10-17T03:13:06;143224.84;;;6.52;100.00
5877;BME280;2964;42.144;24.730;2022-10-17T03:15:32;143222.34;;;6.51;100.00
5877;BME280;2964;42.144;24.730;2022-10-17T03:17:59;143221.06;;;6.51;100.00
5877;BME280;2964;42.144;24.730;2022-10-17T03:20:27;143133.47;;;6.15;100.00
5877;BME280;2964;42.144;24.730;2022-10-17T03:22:54;143233.59;;;6.56;100.00
5877;BME280;2964;42.144;24.730;2022-10-17T03:25:21;143249.91;;;6.63;100.00
5877;BME280;2964;42.144;24.730;2022-10-17T03:27:48;143244.88;;;6.61;100.00
5877;BME280;2964;42.144;24.730;2022-10-17T03:30:15;143127.22;;;6.12;100.00
5877;BME280;2964;42.144;24.730;2022-10-17T03:32:41;143197.31;;;6.41;100.00
5877;BME280;2964;42.144;24.730;2022-10-17T03:35:08;143276.19;;;6.73;100.00
5877;BME280;2964;42.144;24.730;2022-10-17T03:37:36;143211.06;;;6.47;100.00
5877;BME280;2964;42.144;24.730;2022-10-17T03:40:03;143198.53;;;6.42;100.00
5877;BME280;2964;42.144;24.730;2022-10-17T03:42:30;143194.81;;;6.40;100.00
5877;BME280;2964;42.144;24.730;2022-10-17T03:44:57;143104.72;;;6.03;100.00
5877;BME280;2964;42.144;24.730;2022-10-17T03:47:23;143331.28;;;6.96;100.00
5877;BME280;2964;42.144;24.730;2022-10-17T03:49:50;143370.13;;;7.12;100.00
5877;BME280;2964;42.144;24.730;2022-10-17T03:52:18;143378.84;;;7.15;100.00
5877;BME280;2964;42.144;24.730;2022-10-17T03:54:46;143261.13;;;6.67;100.00
5877;BME280;2964;42.144;24.730;2022-10-17T03:57:12;143291.19;;;6.80;100.00
5877;BME280;2964;42.144;24.730;2022-10-17T03:59:39;143274.91;;;6.73;100.00
5877;BME280;2964;42.144;24.730;2022-10-17T04:02:05;143237.38;;;6.57;100.00
5877;BME280;2964;42.144;24.730;2022-10-17T04:04:32;143173.53;;;6.31;100.00
5877;BME280;2964;42.144;24.730;2022-10-17T04:06:59;143241.13;;;6.59;100.00
5877;BME280;2964;42.144;24.730;2022-10-17T04:09:25;143286.19;;;6.78;100.00
5877;BME280;2964;42.144;24.730;2022-10-17T04:11:53;143289.97;;;6.79;100.00
5877;BME280;2964;42.144;24.730;2022-10-17T04:14:20;143234.84;;;6.56;100.00
5877;BME280;2964;42.144;24.730;2022-10-17T04:16:47;143182.28;;;6.35;100.00
5877;BME280;2964;42.144;24.730;2022-10-17T04:19:14;143141.00;;;6.18;100.00
5877;BME280;2964;42.144;24.730;2022-10-17T04:21:40;143137.25;;;6.16;100.00
5877;BME280;2964;42.144;24.730;2022-10-17T04:24:09;143169.75;;;6.30;100.00
5877;BME280;2964;42.144;24.730;2022-10-17T04:26:36;143134.72;;;6.15;100.00
5877;BME280;2964;42.144;24.730;2022-10-17T04:29:04;143146.00;;;6.20;100.00
5877;BME280;2964;42.144;24.730;2022-10-17T04:31:31;143233.59;;;6.56;100.00
5877;BME280;2964;42.144;24.730;2022-10-17T04:33:57;143346.28;;;7.02;100.00
5877;BME280;2964;42.144;24.730;2022-10-17T04:36:24;143264.91;;;6.69;100.00
5877;BME280;2964;42.144;24.730;2022-10-17T04:38:51;143171.00;;;6.30;100.00
5877;BME280;2964;42.144;24.730;2022-10-17T04:41:18;143097.19;;;6.00;100.00
5877;BME280;2964;42.144;24.730;2022-10-17T04:43:45;143147.25;;;6.21;100.00
5877;BME280;2964;42.144;24.730;2022-10-17T04:46:14;143148.47;;;6.21;100.00
5877;BME280;2964;42.144;24.730;2022-10-17T04:48:41;143196.06;;;6.41;100.00
5877;BME280;2964;42.144;24.730;2022-10-17T04:51:11;143139.72;;;6.17;100.00
5877;BME280;2964;42.144;24.730;2022-10-17T04:53:40;143151.00;;;6.22;100.00
5877;BME280;2964;42.144;24.730;2022-10-17T04:56:08;143183.53;;;6.35;100.00
5877;BME280;2964;42.144;24.730;2022-10-17T04:58:35;143130.94;;;6.14;100.00
5877;BME280;2964;42.144;24.730;2022-10-17T05:01:05;143370.13;;;7.12;100.00
5877;BME280;2964;42.144;24.730;2022-10-17T05:03:34;143271.19;;;6.71;100.00
5877;BME280;2964;42.144;24.730;2022-10-17T05:06:05;143188.53;;;6.37;100.00
5877;BME280;2964;42.144;24.730;2022-10-17T05:08:33;143178.53;;;6.33;100.00
5877;BME280;2964;42.144;24.730;2022-10-17T05:11:00;143148.47;;;6.21;100.00
5877;BME280;2964;42.144;24.730;2022-10-17T05:13:27;143077.09;;;5.92;100.00
5877;BME280;2964;42.144;24.730;2022-10-17T05:15:57;143103.44;;;6.03;100.00
5877;BME280;2964;42.144;24.730;2022-10-17T05:18:24;143156.00;;;6.24;100.00
5877;BME280;2964;42.144;24.730;2022-10-17T05:20:52;143348.81;;;7.03;100.00
5877;BME280;2964;42.144;24.730;2022-10-17T05:23:18;143336.28;;;6.98;99.11
5877;BME280;2964;42.144;24.730;2022-10-17T05:25:45;143284.97;;;6.77;99.65
5877;BME280;2964;42.144;24.730;2022-10-17T05:28:12;143267.44;;;6.70;100.00
5877;BME280;2964;42.144;24.730;2022-10-17T05:30:38;143261.13;;;6.67;100.00
5877;BME280;2964;42.144;24.730;2022-10-17T05:33:05;143306.22;;;6.86;100.00
5877;BME280;2964;42.144;24.730;2022-10-17T05:35:32;143328.75;;;6.95;99.59
5877;BME280;2964;42.144;24.730;2022-10-17T05:38:00;143328.75;;;6.95;99.48
5877;BME280;2964;42.144;24.730;2022-10-17T05:40:26;143350.06;;;7.04;98.66
5877;BME280;2964;42.144;24.730;2022-10-17T05:42:53;143353.81;;;7.05;98.62
5877;BME280;2964;42.144;24.730;2022-10-17T05:45:20;143318.75;;;6.91;98.82
5877;BME280;2964;42.144;24.730;2022-10-17T05:47:46;143386.38;;;7.19;98.38
5877;BME280;2964;42.144;24.730;2022-10-17T05:50:13;143411.44;;;7.29;97.99
5877;BME280;2964;42.144;24.730;2022-10-17T05:52:40;143348.81;;;7.03;98.05
5877;BME280;2964;42.144;24.730;2022-10-17T05:55:09;143440.25;;;7.41;96.36
5877;BME280;2964;42.144;24.730;2022-10-17T05:57:35;143541.75;;;7.82;96.15
5877;BME280;2964;42.144;24.730;2022-10-17T06:00:03;143574.34;;;7.96;96.19
5877;BME280;2964;42.144;24.730;2022-10-17T06:02:30;143434.00;;;7.38;95.78
5877;BME280;2964;42.144;24.730;2022-10-17T06:04:57;143679.63;;;8.39;94.29
5877;BME280;2964;42.144;24.730;2022-10-17T06:07:24;143795.06;;;8.86;91.84
5877;BME280;2964;42.144;24.730;2022-10-17T06:09:50;143610.69;;;8.10;92.09
5877;BME280;2964;42.144;24.730;2022-10-17T06:12:18;143783.75;;;8.81;91.98
5877;BME280;2964;42.144;24.730;2022-10-17T06:14:45;143825.19;;;8.98;91.25
5877;BME280;2964;42.144;24.730;2022-10-17T06:17:12;143950.63;;;9.50;89.13
5877;BME280;2964;42.144;24.730;2022-10-17T06:19:38;143978.28;;;9.61;86.75
5877;BME280;2964;42.144;24.730;2022-10-17T06:22:06;144033.50;;;9.83;86.90
5877;BME280;2964;42.144;24.730;2022-10-17T06:24:33;144025.94;;;9.80;86.76
5877;BME280;2964;42.144;24.730;2022-10-17T06:26:59;144018.41;;;9.77;86.22
5877;BME280;2964;42.144;24.730;2022-10-17T06:29:27;144007.13;;;9.73;86.89
5877;BME280;2964;42.144;24.730;2022-10-17T06:31:54;143994.56;;;9.68;87.13
5877;BME280;2964;42.144;24.730;2022-10-17T06:34:21;143915.53;;;9.35;87.77
5877;BME280;2964;42.144;24.730;2022-10-17T06:36:48;143985.78;;;9.64;88.21
5877;BME280;2964;42.144;24.730;2022-10-17T06:39:14;144078.69;;;10.02;87.07
5877;BME280;2964;42.144;24.730;2022-10-17T06:41:41;144138.94;;;10.27;85.32
5877;BME280;2964;42.144;24.730;2022-10-17T06:44:08;143949.38;;;9.49;86.93
5877;BME280;2964;42.144;24.730;2022-10-17T06:46:38;144189.22;;;10.47;85.29
5877;BME280;2964;42.144;24.730;2022-10-17T06:49:05;144199.31;;;10.51;85.70
5877;BME280;2964;42.144;24.730;2022-10-17T06:51:34;144243.22;;;10.69;84.57
5877;BME280;2964;42.144;24.730;2022-10-17T06:54:02;144297.25;;;10.91;83.23
5877;BME280;2964;42.144;24.730;2022-10-17T06:56:29;144367.63;;;11.20;82.93
5877;BME280;2964;42.144;24.730;2022-10-17T06:58:55;144405.31;;;11.35;81.69
5877;BME280;2964;42.144;24.730;2022-10-17T07:01:22;144469.41;;;11.62;81.01
5877;BME280;2964;42.144;24.730;2022-10-17T07:03:50;144484.53;;;11.68;81.13
5877;BME280;2964;42.144;24.730;2022-10-17T07:06:17;144468.19;;;11.61;80.98
5877;BME280;2964;42.144;24.730;2022-10-17T07:08:44;144577.59;;;12.06;79.76
5877;BME280;2964;42.144;24.730;2022-10-17T07:11:13;144622.88;;;12.24;79.05
5877;BME280;2964;42.144;24.730;2022-10-17T07:13:40;144634.22;;;12.29;79.67
5877;BME280;2964;42.144;24.730;2022-10-17T07:16:07;144583.91;;;12.08;79.36
5877;BME280;2964;42.144;24.730;2022-10-17T07:18:34;144625.41;;;12.25;79.46
5877;BME280;2964;42.144;24.730;2022-10-17T07:21:04;144609.06;;;12.19;79.29
5877;BME280;2964;42.144;24.730;2022-10-17T07:23:33;144649.31;;;12.35;78.87
5877;BME280;2964;42.144;24.730;2022-10-17T07:26:02;144635.47;;;12.29;78.74
5877;BME280;2964;42.144;24.730;2022-10-17T07:28:31;144567.56;;;12.02;78.56
5877;BME280;2964;42.144;24.730;2022-10-17T07:31:02;144646.81;;;12.34;79.48
5877;BME280;2964;42.144;24.730;2022-10-17T07:33:29;144707.19;;;12.59;78.32
5877;BME280;2964;42.144;24.730;2022-10-17T07:35:57;144732.38;;;12.69;78.45
5877;BME280;2964;42.144;24.730;2022-10-17T07:38:25;144741.13;;;12.72;77.15
5877;BME280;2964;42.144;24.730;2022-10-17T07:40:55;144907.31;;;13.40;75.87
5877;BME280;2964;42.144;24.730;2022-10-17T07:43:23;144897.25;;;13.36;75.88
5877;BME280;2964;42.144;24.730;2022-10-17T07:45:49;144896.00;;;13.36;76.28
5877;BME280;2964;42.144;24.730;2022-10-17T07:48:17;144914.88;;;13.43;75.32
5877;BME280;2964;42.144;24.730;2022-10-17T07:50:44;144911.09;;;13.42;75.61
5877;BME280;2964;42.144;24.730;2022-10-17T07:53:11;144996.72;;;13.77;74.04
5877;BME280;2964;42.144;24.730;2022-10-17T07:55:40;144981.63;;;13.70;74.07
5877;BME280;2964;42.144;24.730;2022-10-17T07:58:07;145079.81;;;14.10;73.58
5877;BME280;2964;42.144;24.730;2022-10-17T08:00:35;145083.59;;;14.12;72.73
5877;BME280;2964;42.144;24.730;2022-10-17T08:03:02;145134.00;;;14.33;72.52
5877;BME280;2964;42.144;24.730;2022-10-17T08:05:29;145052.13;;;13.99;73.31
5877;BME280;2964;42.144;24.730;2022-10-17T08:07:56;145191.94;;;14.56;71.35
5877;BME280;2964;42.144;24.730;2022-10-17T08:10:23;145193.19;;;14.57;71.43
5877;BME280;2964;42.144;24.730;2022-10-17T08:12:53;145218.47;;;14.67;71.79
5877;BME280;2964;42.144;24.730;2022-10-17T08:15:21;145193.19;;;14.57;71.32
5877;BME280;2964;42.144;24.730;2022-10-17T08:17:48;145174.31;;;14.49;70.69
5877;BME280;2964;42.144;24.730;2022-10-17T08:20:14;145277.69;;;14.91;70.11
5877;BME280;2964;42.144;24.730;2022-10-17T08:22:42;145205.84;;;14.62;69.96
5877;BME280;2964;42.144;24.730;2022-10-17T08:25:08;145273.91;;;14.90;70.00
5877;BME280;2964;42.144;24.730;2022-10-17T08:27:35;145698.97;;;16.63;66.13
5877;BME280;2964;42.144;24.730;2022-10-17T08:30:04;145821.47;;;17.12;62.15
5877;BME280;2964;42.144;24.730;2022-10-17T08:32:31;145861.88;;;17.29;62.84
5877;BME280;2964;42.144;24.730;2022-10-17T08:34:57;146070.31;;;18.13;61.24
5877;BME280;2964;42.144;24.730;2022-10-17T08:37:24;146447.03;;;19.66;56.62
5877;BME280;2964;42.144;24.730;2022-10-17T08:39:51;146409.06;;;19.51;55.48
5877;BME280;2964;42.144;24.730;2022-10-17T08:42:33;146405.31;;;19.50;55.23
5877;BME280;2964;42.144;24.730;2022-10-17T08:45:15;146647.00;;;20.48;53.82
5877;BME280;2964;42.144;24.730;2022-10-17T08:47:47;146663.41;;;20.54;52.30
5877;BME280;2964;42.144;24.730;2022-10-17T08:50:23;146611.53;;;20.33;53.33
5877;BME280;2964;42.144;24.730;2022-10-17T08:52:54;146764.75;;;20.95;52.80
5877;BME280;2964;42.144;24.730;2022-10-17T08:55:30;146969.94;;;21.78;49.45
5877;BME280;2964;42.144;24.730;2022-10-17T08:57:57;147567.16;;;24.20;43.23
5877;BME280;2964;42.144;24.730;2022-10-17T09:00:27;148120.84;;;26.44;35.52
5877;BME280;2964;42.144;24.730;2022-10-17T09:03:04;148072.59;;;26.25;33.03
5877;BME280;2964;42.144;24.730;2022-10-17T09:05:37;147873.13;;;25.44;33.33
5877;BME280;2964;42.144;24.730;2022-10-17T09:08:15;148478.13;;;27.88;31.09
5877;BME280;2964;42.144;24.730;2022-10-17T09:10:53;149322.47;;;31.29;26.40
5877;BME280;2964;42.144;24.730;2022-10-17T09:13:29;149349.22;;;31.40;24.82
5877;BME280;2964;42.144;24.730;2022-10-17T09:16:18;149102.00;;;30.40;24.73
5877;BME280;2964;42.144;24.730;2022-10-17T09:18:58;149275.31;;;31.10;25.61
5877;BME280;2964;42.144;24.730;2022-10-17T09:21:35;149507.34;;;32.03;24.51
5877;BME280;2964;42.144;24.730;2022-10-17T09:24:12;149666.81;;;32.67;23.50
5877;BME280;2964;42.144;24.730;2022-10-17T09:26:40;149168.22;;;30.67;23.21
5877;BME280;2964;42.144;24.730;2022-10-17T09:29:15;149066.28;;;30.26;24.18
5877;BME280;2964;42.144;24.730;2022-10-17T09:31:47;149079.03;;;30.31;24.63
5877;BME280;2964;42.144;24.730;2022-10-17T09:34:14;148587.56;;;28.33;25.81
5877;BME280;2964;42.144;24.730;2022-10-17T09:36:41;148646.13;;;28.56;26.52
5877;BME280;2964;42.144;24.730;2022-10-17T09:39:12;148796.34;;;29.17;25.14
5877;BME280;2964;42.144;24.730;2022-10-17T09:41:41;148758.13;;;29.01;25.05
5877;BME280;2964;42.144;24.730;2022-10-17T09:44:18;148460.31;;;27.81;26.14
5877;BME280;2964;42.144;24.730;2022-10-17T09:47:12;148234.00;;;26.90;27.83
5877;BME280;2964;42.144;24.730;2022-10-17T09:49:42;147738.47;;;24.90;29.28
5877;BME280;2964;42.144;24.730;2022-10-17T09:52:11;147204.34;;;22.73;32.04
5877;BME280;2964;42.144;24.730;2022-10-17T09:54:42;146764.75;;;20.95;34.87
5877;BME280;2964;42.144;24.730;2022-10-17T09:57:11;146429.34;;;19.59;38.33
5877;BME280;2964;42.144;24.730;2022-10-17T09:59:40;146319.34;;;19.15;38.71
5877;BME280;2964;42.144;24.730;2022-10-17T10:02:17;146060.22;;;18.09;41.23
5877;BME280;2964;42.144;24.730;2022-10-17T10:04:52;146134.72;;;18.40;39.78
5877;BME280;2964;42.144;24.730;2022-10-17T10:07:19;146122.09;;;18.35;39.68
5877;BME280;2964;42.144;24.730;2022-10-17T10:09:47;146084.19;;;18.19;40.80
5877;BME280;2964;42.144;24.730;2022-10-17T10:12:17;146117.03;;;18.32;40.13
5877;BME280;2964;42.144;24.730;2022-10-17T10:14:44;146076.59;;;18.16;39.60
5877;BME280;2964;42.144;24.730;2022-10-17T10:17:33;145995.69;;;17.83;36.98
5877;BME280;2964;42.144;24.730;2022-10-17T10:20:01;145971.72;;;17.73;38.40
5877;BME280;2964;42.144;24.730;2022-10-17T10:22:27;145972.97;;;17.74;39.14
5877;BME280;2964;42.144;24.730;2022-10-17T10:25:12;146038.72;;;18.01;38.45
5877;BME280;2964;42.144;24.730;2022-10-17T10:27:41;145964.13;;;17.70;36.90
5877;BME280;2964;42.144;24.730;2022-10-17T10:30:16;145894.69;;;17.42;37.64
5877;BME280;2964;42.144;24.730;2022-10-17T10:32:47;145940.13;;;17.61;36.76
5877;BME280;2964;42.144;24.730;2022-10-17T10:35:20;145914.91;;;17.50;37.80
5877;BME280;2964;42.144;24.730;2022-10-17T10:37:49;145917.41;;;17.51;37.03
5877;BME280;2964;42.144;24.730;2022-10-17T10:40:19;145926.25;;;17.55;36.99
5877;BME280;2964;42.144;24.730;2022-10-17T10:42:48;145943.94;;;17.62;37.24
5877;BME280;2964;42.144;24.730;2022-10-17T10:45:17;145990.66;;;17.81;37.25
5877;BME280;2964;42.144;24.730;2022-10-17T10:47:53;145925.00;;;17.54;36.82
5877;BME280;2964;42.144;24.730;2022-10-17T10:50:25;145937.63;;;17.60;36.50
5877;BME280;2964;42.144;24.730;2022-10-17T10:53:08;145966.66;;;17.71;36.55
5877;BME280;2964;42.144;24.730;2022-10-17T10:55:42;146008.38;;;17.88;36.29
5877;BME280;2964;42.144;24.730;2022-10-17T10:58:25;145999.53;;;17.85;36.08
5877;BME280;2964;42.144;24.730;2022-10-17T11:00:53;145966.66;;;17.71;36.29
5877;BME280;2964;42.144;24.730;2022-10-17T11:03:30;146007.13;;;17.88;35.97
5877;BME280;2964;42.144;24.730;2022-10-17T11:06:01;146017.22;;;17.92;36.72
5877;BME280;2964;42.144;24.730;2022-10-17T11:08:34;146003.34;;;17.86;36.39
5877;BME280;2964;42.144;24.730;2022-10-17T11:11:12;146066.50;;;18.12;36.79
5877;BME280;2964;42.144;24.730;2022-10-17T11:13:46;146036.16;;;18.00;36.65
5877;BME280;2964;42.144;24.730;2022-10-17T11:16:28;146008.38;;;17.88;37.09
5877;BME280;2964;42.144;24.730;2022-10-17T11:19:06;145990.66;;;17.81;37.64
5877;BME280;2964;42.144;24.730;2022-10-17T11:21:42;146088.00;;;18.21;38.04
5877;BME280;2964;42.144;24.730;2022-10-17T11:24:18;146056.41;;;18.08;37.16
5877;BME280;2964;42.144;24.730;2022-10-17T11:26:53;146019.78;;;17.93;37.56
5877;BME280;2964;42.144;24.730;2022-10-17T11:29:25;146038.72;;;18.01;38.16
5877;BME280;2964;42.144;24.730;2022-10-17T11:31:54;146075.34;;;18.16;38.07
5877;BME280;2964;42.144;24.730;2022-10-17T11:34:25;146091.78;;;18.22;38.41
5877;BME280;2964;42.144;24.730;2022-10-17T11:36:55;146074.09;;;18.15;38.33
5877;BME280;2964;42.144;24.730;2022-10-17T11:39:29;146027.31;;;17.96;38.27
5877;BME280;2964;42.144;24.730;2022-10-17T11:41:59;146056.41;;;18.08;38.77
5877;BME280;2964;42.144;24.730;2022-10-17T11:44:31;146084.19;;;18.19;37.78
5877;BME280;2964;42.144;24.730;2022-10-17T11:47:04;146063.97;;;18.11;37.59
5877;BME280;2964;42.144;24.730;2022-10-17T11:49:35;146052.63;;;18.06;38.86
5877;BME280;2964;42.144;24.730;2022-10-17T11:52:10;146069.06;;;18.13;38.36
5877;BME280;2964;42.144;24.730;2022-10-17T11:54:44;146076.59;;;18.16;39.05
5877;BME280;2964;42.144;24.730;2022-10-17T11:57:26;146117.03;;;18.32;38.52
5877;BME280;2964;42.144;24.730;2022-10-17T12:00:05;146110.75;;;18.30;38.31
5877;BME280;2964;42.144;24.730;2022-10-17T12:02:45;146026.06;;;17.96;38.86
5877;BME280;2964;42.144;24.730;2022-10-17T12:05:23;146048.81;;;18.05;39.45
5877;BME280;2964;42.144;24.730;2022-10-17T12:07:59;146022.28;;;17.94;39.25
5877;BME280;2964;42.144;24.730;2022-10-17T12:10:38;146063.97;;;18.11;39.96
5877;BME280;2964;42.144;24.730;2022-10-17T12:13:45;146088.00;;;18.21;39.46
5877;BME280;2964;42.144;24.730;2022-10-17T12:16:37;146098.09;;;18.25;39.37
5877;BME280;2964;42.144;24.730;2022-10-17T12:19:27;146147.38;;;18.45;39.07
5877;BME280;2964;42.144;24.730;2022-10-17T12:22:02;146115.78;;;18.32;39.91
5877;BME280;2964;42.144;24.730;2022-10-17T12:24:36;146104.38;;;18.27;39.21
5877;BME280;2964;42.144;24.730;2022-10-17T12:27:22;146151.19;;;18.46;39.23
5877;BME280;2964;42.144;24.730;2022-10-17T12:29:57;146173.94;;;18.56;39.89
5877;BME280;2964;42.144;24.730;2022-10-17T12:32:25;146149.88;;;18.46;40.92
5877;BME280;2964;42.144;24.730;2022-10-17T12:34:52;146178.97;;;18.58;39.66
5877;BME280;2964;42.144;24.730;2022-10-17T12:40:48;146162.53;;;18.51;38.77
5877;BME280;2964;42.144;24.730;2022-10-17T12:46:41;146154.94;;;18.48;39.01
5877;BME280;2964;42.144;24.730;2022-10-17T12:52:16;146157.47;;;18.49;38.70
5877;BME280;2964;42.144;24.730;2022-10-17T12:54:44;146191.63;;;18.63;39.59
5877;BME280;2964;42.144;24.730;2022-10-17T12:57:18;146177.69;;;18.57;39.41
5877;BME280;2964;42.144;24.730;2022-10-17T12:59:46;146197.91;;;18.65;39.41
5877;BME280;2964;42.144;24.730;2022-10-17T13:02:18;146122.09;;;18.35;38.92
5877;BME280;2964;42.144;24.730;2022-10-17T13:04:47;146081.66;;;18.18;39.03
5877;BME280;2964;42.144;24.730;2022-10-17T13:07:18;146180.22;;;18.58;39.08
5877;BME280;2964;42.144;24.730;2022-10-17T13:09:45;146175.19;;;18.56;39.30
5877;BME280;2964;42.144;24.730;2022-10-17T13:12:17;146134.72;;;18.40;39.58
5877;BME280;2964;42.144;24.730;2022-10-17T13:14:46;146104.38;;;18.27;40.01
5877;BME280;2964;42.144;24.730;2022-10-17T13:17:22;146185.28;;;18.60;40.16
5877;BME280;2964;42.144;24.730;2022-10-17T13:19:49;146148.63;;;18.45;39.34
5877;BME280;2964;42.144;24.730;2022-10-17T13:22:18;146162.53;;;18.51;39.78
5877;BME280;2964;42.144;24.730;2022-10-17T13:24:45;146197.91;;;18.65;39.55
5877;BME280;2964;42.144;24.730;2022-10-17T13:27:24;146119.59;;;18.33;40.74
5877;BME280;2964;42.144;24.730;2022-10-17T13:29:52;146112.00;;;18.30;40.44
5877;BME280;2964;42.144;24.730;2022-10-17T13:32:21;146100.59;;;18.26;40.39